createdAt,value
2018-12-15T00:00:08.737Z,1039.95980357
2018-12-15T00:00:21.268Z,1039.95980357
2018-12-15T00:00:33.615Z,1039.95980357
2018-12-15T00:00:45.950Z,1039.95980357
2018-12-15T00:00:58.303Z,1039.95980357
2018-12-15T00:01:10.666Z,1039.92593969
2018-12-15T00:01:23.085Z,1039.92593969
2018-12-15T00:01:36.569Z,1039.92593969
2018-12-15T00:01:48.919Z,1039.92593969
2018-12-15T00:02:01.263Z,1040.0952591
2018-12-15T00:02:13.626Z,1040.0952591
2018-12-15T00:02:26.164Z,1040.0952591
2018-12-15T00:02:38.564Z,1040.0952591
2018-12-15T00:02:50.916Z,1040.0952591
2018-12-15T00:03:03.247Z,1039.95980357
2018-12-15T00:03:15.577Z,1039.95980357
2018-12-15T00:03:27.939Z,1039.95980357
2018-12-15T00:03:40.282Z,1039.95980357
2018-12-15T00:03:52.638Z,1039.95980357
2018-12-15T00:04:04.993Z,1039.99366745
2018-12-15T00:04:17.336Z,1039.99366745
2018-12-15T00:04:29.732Z,1039.99366745
2018-12-15T00:04:42.080Z,1039.99366745
2018-12-15T00:04:54.418Z,1039.99366745
2018-12-15T00:05:06.828Z,1039.99366745
2018-12-15T00:05:19.171Z,1039.99366745
2018-12-15T00:05:31.519Z,1039.99366745
2018-12-15T00:05:43.874Z,1039.99366745
2018-12-15T00:05:56.386Z,1039.99366745
2018-12-15T00:06:08.796Z,1039.95980357
2018-12-15T00:06:21.184Z,1039.95980357
2018-12-15T00:06:33.540Z,1039.95980357
2018-12-15T00:06:45.890Z,1039.95980357
2018-12-15T00:06:58.225Z,1039.95980357
2018-12-15T00:07:10.564Z,1039.99366745
2018-12-15T00:07:22.973Z,1039.99366745
2018-12-15T00:07:35.322Z,1039.99366745
2018-12-15T00:07:47.666Z,1039.99366745
2018-12-15T00:07:59.998Z,1039.99366745
2018-12-15T00:08:12.350Z,1040.02753134
2018-12-15T00:08:24.697Z,1040.02753134
2018-12-15T00:08:37.055Z,1040.02753134
2018-12-15T00:08:49.470Z,1040.02753134
2018-12-15T00:09:01.818Z,1040.02753134
2018-12-15T00:09:14.142Z,1040.02753134
2018-12-15T00:09:26.859Z,1040.02753134
2018-12-15T00:09:39.230Z,1040.02753134
2018-12-15T00:09:51.595Z,1040.02753134
2018-12-15T00:10:03.951Z,1039.92593969
2018-12-15T00:10:16.292Z,1039.92593969
2018-12-15T00:10:28.639Z,1039.92593969
2018-12-15T00:10:40.986Z,1039.92593969
2018-12-15T00:10:53.323Z,1039.92593969
2018-12-15T00:11:05.676Z,1040.02753134
2018-12-15T00:11:18.130Z,1040.02753134
2018-12-15T00:11:30.519Z,1040.02753134
2018-12-15T00:11:42.872Z,1040.02753134
2018-12-15T00:11:55.246Z,1040.02753134
2018-12-15T00:12:07.595Z,1039.99366745
2018-12-15T00:12:19.947Z,1039.99366745
2018-12-15T00:12:32.376Z,1039.99366745
2018-12-15T00:12:44.730Z,1039.99366745
2018-12-15T00:12:57.093Z,1039.99366745
2018-12-15T00:13:09.452Z,1039.99366745
2018-12-15T00:13:21.814Z,1039.99366745
2018-12-15T00:13:34.153Z,1039.99366745
2018-12-15T00:13:46.484Z,1039.99366745
2018-12-15T00:13:58.850Z,1039.99366745
2018-12-15T00:14:11.203Z,1039.95980357
2018-12-15T00:14:23.559Z,1039.95980357
2018-12-15T00:14:36.460Z,1039.95980357
2018-12-15T00:14:48.799Z,1039.95980357
2018-12-15T00:15:01.160Z,1039.99366745
2018-12-15T00:15:13.505Z,1039.99366745
2018-12-15T00:15:25.853Z,1039.99366745
2018-12-15T00:15:38.267Z,1039.99366745
2018-12-15T00:15:50.602Z,1039.99366745
2018-12-15T00:16:02.944Z,1040.02753134
2018-12-15T00:16:15.291Z,1040.02753134
2018-12-15T00:16:27.626Z,1040.02753134
2018-12-15T00:16:40.265Z,1040.02753134
2018-12-15T00:16:52.635Z,1040.02753134
2018-12-15T00:17:11.252Z,1039.99366745
2018-12-15T00:17:23.613Z,1039.99366745
2018-12-15T00:17:35.955Z,1039.99366745
2018-12-15T00:17:48.368Z,1039.99366745
2018-12-15T00:18:00.835Z,1040.06139522
2018-12-15T00:18:13.186Z,1040.06139522
2018-12-15T00:18:25.525Z,1040.06139522
2018-12-15T00:18:37.937Z,1040.06139522
2018-12-15T00:18:50.304Z,1040.06139522
2018-12-15T00:19:02.666Z,1039.95980357
2018-12-15T00:19:15.015Z,1039.95980357
2018-12-15T00:19:27.351Z,1039.95980357
2018-12-15T00:19:39.702Z,1039.95980357
2018-12-15T00:19:52.039Z,1039.95980357
2018-12-15T00:20:04.371Z,1039.95980357
2018-12-15T00:20:16.710Z,1039.95980357
2018-12-15T00:20:29.054Z,1039.95980357
2018-12-15T00:20:41.408Z,1039.95980357
2018-12-15T00:20:53.785Z,1039.95980357
2018-12-15T00:21:06.180Z,1039.95980357
2018-12-15T00:21:18.524Z,1039.95980357
2018-12-15T00:21:30.864Z,1039.95980357
2018-12-15T00:21:43.289Z,1039.95980357
2018-12-15T00:21:55.656Z,1039.95980357
2018-12-15T00:22:07.991Z,1039.95980357
2018-12-15T00:22:20.367Z,1039.95980357
2018-12-15T00:22:32.701Z,1039.95980357
2018-12-15T00:22:45.040Z,1039.95980357
2018-12-15T00:22:57.378Z,1039.95980357
2018-12-15T00:23:09.743Z,1039.99366745
2018-12-15T00:23:22.096Z,1039.99366745
2018-12-15T00:23:34.460Z,1039.99366745
2018-12-15T00:23:46.812Z,1039.99366745
2018-12-15T00:23:59.156Z,1039.99366745
2018-12-15T00:24:11.500Z,1039.99366745
2018-12-15T00:24:23.857Z,1039.99366745
2018-12-15T00:24:36.200Z,1039.99366745
2018-12-15T00:24:48.543Z,1039.99366745
2018-12-15T00:25:00.888Z,1039.95980357
2018-12-15T00:25:13.346Z,1039.95980357
2018-12-15T00:25:25.682Z,1039.95980357
2018-12-15T00:25:38.230Z,1039.95980357
2018-12-15T00:25:50.648Z,1039.95980357
2018-12-15T00:26:03.013Z,1040.02753134
2018-12-15T00:26:15.353Z,1040.02753134
2018-12-15T00:26:27.854Z,1040.02753134
2018-12-15T00:26:40.522Z,1040.02753134
2018-12-15T00:26:52.847Z,1040.02753134
2018-12-15T00:27:05.201Z,1039.99366745
2018-12-15T00:27:17.544Z,1039.99366745
2018-12-15T00:27:29.934Z,1039.99366745
2018-12-15T00:27:42.275Z,1039.99366745
2018-12-15T00:27:54.625Z,1039.99366745
2018-12-15T00:28:06.974Z,1039.95980357
2018-12-15T00:28:19.341Z,1039.95980357
2018-12-15T00:28:31.802Z,1039.95980357
2018-12-15T00:28:44.307Z,1039.95980357
2018-12-15T00:28:56.700Z,1039.95980357
2018-12-15T00:29:09.050Z,1039.99366745
2018-12-15T00:29:21.393Z,1039.99366745
2018-12-15T00:29:33.732Z,1039.99366745
2018-12-15T00:29:46.114Z,1039.99366745
2018-12-15T00:29:58.457Z,1039.99366745
2018-12-15T00:30:10.885Z,1039.99366745
2018-12-15T00:30:23.909Z,1039.99366745
2018-12-15T00:30:36.244Z,1039.99366745
2018-12-15T00:30:48.800Z,1039.99366745
2018-12-15T00:31:01.157Z,1040.02753134
2018-12-15T00:31:13.572Z,1040.02753134
2018-12-15T00:31:25.990Z,1040.02753134
2018-12-15T00:31:38.341Z,1040.02753134
2018-12-15T00:31:50.690Z,1040.02753134
2018-12-15T00:32:03.022Z,1039.92593969
2018-12-15T00:32:15.659Z,1039.92593969
2018-12-15T00:32:28.252Z,1039.92593969
2018-12-15T00:32:40.662Z,1039.92593969
2018-12-15T00:32:53.026Z,1039.92593969
2018-12-15T00:33:05.358Z,1039.95980357
2018-12-15T00:33:17.701Z,1039.95980357
2018-12-15T00:33:30.202Z,1039.95980357
2018-12-15T00:33:42.549Z,1039.95980357
2018-12-15T00:33:54.888Z,1039.95980357
2018-12-15T00:34:07.255Z,1039.99366745
2018-12-15T00:34:19.597Z,1039.99366745
2018-12-15T00:34:31.963Z,1039.99366745
2018-12-15T00:34:44.318Z,1039.99366745
2018-12-15T00:34:56.879Z,1039.99366745
2018-12-15T00:35:09.246Z,1039.89207581
2018-12-15T00:35:21.631Z,1039.89207581
2018-12-15T00:35:33.980Z,1039.89207581
2018-12-15T00:35:46.321Z,1039.89207581
2018-12-15T00:35:58.759Z,1039.89207581
2018-12-15T00:36:11.137Z,1039.95980357
2018-12-15T00:36:23.693Z,1039.95980357
2018-12-15T00:36:36.030Z,1039.95980357
2018-12-15T00:36:48.358Z,1039.95980357
2018-12-15T00:37:00.693Z,1039.92593969
2018-12-15T00:37:13.101Z,1039.92593969
2018-12-15T00:37:25.456Z,1039.92593969
2018-12-15T00:37:37.889Z,1039.92593969
2018-12-15T00:37:50.423Z,1039.92593969
2018-12-15T00:38:02.973Z,1039.99366745
2018-12-15T00:38:15.375Z,1039.99366745
2018-12-15T00:38:27.718Z,1039.99366745
2018-12-15T00:38:40.050Z,1039.99366745
2018-12-15T00:38:52.404Z,1039.99366745
2018-12-15T00:39:04.773Z,1039.99366745
2018-12-15T00:39:17.199Z,1039.99366745
2018-12-15T00:39:29.668Z,1039.99366745
2018-12-15T00:39:42.011Z,1039.99366745
2018-12-15T00:39:54.602Z,1039.99366745
2018-12-15T00:40:07.091Z,1040.06139522
2018-12-15T00:40:19.430Z,1040.06139522
2018-12-15T00:40:31.843Z,1040.06139522
2018-12-15T00:40:44.329Z,1040.06139522
2018-12-15T00:40:56.849Z,1040.06139522
2018-12-15T00:41:09.302Z,1040.06139522
2018-12-15T00:41:21.639Z,1040.06139522
2018-12-15T00:41:33.964Z,1040.06139522
2018-12-15T00:41:46.295Z,1040.06139522
2018-12-15T00:41:58.633Z,1040.06139522
2018-12-15T00:42:11.018Z,1040.06139522
2018-12-15T00:42:23.352Z,1040.06139522
2018-12-15T00:42:35.795Z,1040.06139522
2018-12-15T00:42:48.206Z,1040.06139522
2018-12-15T00:43:00.607Z,1040.06139522
2018-12-15T00:43:12.953Z,1040.12912298
2018-12-15T00:43:25.313Z,1040.12912298
2018-12-15T00:43:37.655Z,1040.12912298
2018-12-15T00:43:50.027Z,1040.12912298
2018-12-15T00:44:02.390Z,1039.99366745
2018-12-15T00:44:14.723Z,1039.99366745
2018-12-15T00:44:27.085Z,1039.99366745
2018-12-15T00:44:39.439Z,1039.99366745
2018-12-15T00:44:51.784Z,1039.99366745
2018-12-15T00:45:04.173Z,1040.12912298
2018-12-15T00:45:16.506Z,1040.12912298
2018-12-15T00:45:28.906Z,1040.12912298
2018-12-15T00:45:41.260Z,1040.12912298
2018-12-15T00:45:53.608Z,1040.12912298
2018-12-15T00:46:05.964Z,1040.06139522
2018-12-15T00:46:18.496Z,1040.06139522
2018-12-15T00:46:30.830Z,1040.06139522
2018-12-15T00:46:43.193Z,1040.06139522
2018-12-15T00:46:55.569Z,1040.06139522
2018-12-15T00:47:15.007Z,1040.0952591
2018-12-15T00:47:27.348Z,1040.0952591
2018-12-15T00:47:39.773Z,1040.0952591
2018-12-15T00:47:52.121Z,1040.0952591
2018-12-15T00:48:04.461Z,1040.12912298
2018-12-15T00:48:16.808Z,1040.12912298
2018-12-15T00:48:29.149Z,1040.12912298
2018-12-15T00:48:41.498Z,1040.12912298
2018-12-15T00:48:53.861Z,1040.12912298
2018-12-15T00:49:06.220Z,1040.06139522
2018-12-15T00:49:18.558Z,1040.06139522
2018-12-15T00:49:31.038Z,1040.06139522
2018-12-15T00:49:43.383Z,1040.06139522
2018-12-15T00:49:55.740Z,1040.06139522
2018-12-15T00:50:08.139Z,1040.06139522
2018-12-15T00:50:20.522Z,1040.06139522
2018-12-15T00:50:32.895Z,1040.06139522
2018-12-15T00:50:45.240Z,1040.06139522
2018-12-15T00:50:57.588Z,1040.06139522
2018-12-15T00:51:09.919Z,1040.12912298
2018-12-15T00:51:22.354Z,1040.12912298
2018-12-15T00:51:34.690Z,1040.12912298
2018-12-15T00:51:47.034Z,1040.12912298
2018-12-15T00:51:59.363Z,1040.12912298
2018-12-15T00:52:11.838Z,1040.06139522
2018-12-15T00:52:24.195Z,1040.06139522
2018-12-15T00:52:36.534Z,1040.06139522
2018-12-15T00:52:48.859Z,1040.06139522
2018-12-15T00:53:01.238Z,1040.06139522
2018-12-15T00:53:13.574Z,1040.06139522
2018-12-15T00:53:25.909Z,1040.06139522
2018-12-15T00:53:38.303Z,1040.06139522
2018-12-15T00:53:50.670Z,1040.06139522
2018-12-15T00:54:03.008Z,1040.0952591
2018-12-15T00:54:15.352Z,1040.0952591
2018-12-15T00:54:27.700Z,1040.0952591
2018-12-15T00:54:40.037Z,1040.0952591
2018-12-15T00:54:52.405Z,1040.0952591
2018-12-15T00:55:04.945Z,1040.0952591
2018-12-15T00:55:17.393Z,1040.0952591
2018-12-15T00:55:29.827Z,1040.0952591
2018-12-15T00:55:42.186Z,1040.0952591
2018-12-15T00:55:54.541Z,1040.0952591
2018-12-15T00:56:06.881Z,1040.16298686
2018-12-15T00:56:19.305Z,1040.16298686
2018-12-15T00:56:31.635Z,1040.16298686
2018-12-15T00:56:44.264Z,1040.16298686
2018-12-15T00:56:56.610Z,1040.16298686
2018-12-15T00:57:08.940Z,1040.06139522
2018-12-15T00:57:21.339Z,1040.06139522
2018-12-15T00:57:33.663Z,1040.06139522
2018-12-15T00:57:45.996Z,1040.06139522
2018-12-15T00:57:58.331Z,1040.06139522
2018-12-15T00:58:10.680Z,1040.0952591
2018-12-15T00:58:24.479Z,1040.0952591
2018-12-15T00:58:36.832Z,1040.0952591
2018-12-15T00:58:49.236Z,1040.0952591
2018-12-15T00:59:01.684Z,1040.16298686
2018-12-15T00:59:14.046Z,1040.16298686
2018-12-15T00:59:26.411Z,1040.16298686
2018-12-15T00:59:38.836Z,1040.16298686
2018-12-15T00:59:51.196Z,1040.16298686
2018-12-15T01:00:03.546Z,1040.16298686
2018-12-15T01:00:15.927Z,1040.16298686
2018-12-15T01:00:28.332Z,1040.16298686
2018-12-15T01:00:40.692Z,1040.16298686
2018-12-15T01:00:53.043Z,1040.16298686
2018-12-15T01:01:05.406Z,1040.16298686
2018-12-15T01:01:17.743Z,1040.16298686
2018-12-15T01:01:30.094Z,1040.16298686
2018-12-15T01:01:42.464Z,1040.16298686
2018-12-15T01:01:54.832Z,1040.16298686
2018-12-15T01:02:07.200Z,1040.12912298
2018-12-15T01:02:19.559Z,1040.12912298
2018-12-15T01:02:32.318Z,1040.12912298
2018-12-15T01:02:44.651Z,1040.12912298
2018-12-15T01:02:57.027Z,1040.12912298
2018-12-15T01:03:09.376Z,1040.0952591
2018-12-15T01:03:21.719Z,1040.0952591
2018-12-15T01:03:34.061Z,1040.0952591
2018-12-15T01:03:46.413Z,1040.0952591
2018-12-15T01:03:58.775Z,1040.0952591
2018-12-15T01:04:11.135Z,1040.12912298
2018-12-15T01:04:23.490Z,1040.12912298
2018-12-15T01:04:35.830Z,1040.12912298
2018-12-15T01:04:48.195Z,1040.12912298
2018-12-15T01:05:00.561Z,1040.12912298
2018-12-15T01:05:12.907Z,1040.0952591
2018-12-15T01:05:25.248Z,1040.0952591
2018-12-15T01:05:37.615Z,1040.0952591
2018-12-15T01:05:49.956Z,1040.0952591
2018-12-15T01:06:02.299Z,1040.0952591
2018-12-15T01:06:14.633Z,1040.0952591
2018-12-15T01:06:27.084Z,1040.0952591
2018-12-15T01:06:39.439Z,1040.0952591
2018-12-15T01:06:51.775Z,1040.0952591
2018-12-15T01:07:04.154Z,1040.19685074
2018-12-15T01:07:16.513Z,1040.19685074
2018-12-15T01:07:28.858Z,1040.19685074
2018-12-15T01:07:42.061Z,1040.19685074
2018-12-15T01:07:54.392Z,1040.19685074
2018-12-15T01:08:06.749Z,1040.19685074
2018-12-15T01:08:19.118Z,1040.19685074
2018-12-15T01:08:31.447Z,1040.19685074
2018-12-15T01:08:43.794Z,1040.19685074
2018-12-15T01:08:56.151Z,1040.19685074
2018-12-15T01:09:08.496Z,1040.16298686
2018-12-15T01:09:21.024Z,1040.16298686
2018-12-15T01:09:33.385Z,1040.16298686
2018-12-15T01:09:45.718Z,1040.16298686
2018-12-15T01:09:58.073Z,1040.16298686
2018-12-15T01:10:10.414Z,1040.16298686
2018-12-15T01:10:22.826Z,1040.16298686
2018-12-15T01:10:35.174Z,1040.16298686
2018-12-15T01:10:47.534Z,1040.16298686
2018-12-15T01:10:59.941Z,1040.16298686
2018-12-15T01:11:12.320Z,1040.16298686
2018-12-15T01:11:24.669Z,1040.16298686
2018-12-15T01:11:37.022Z,1040.16298686
2018-12-15T01:11:49.377Z,1040.16298686
2018-12-15T01:12:01.707Z,1040.16298686
2018-12-15T01:12:14.267Z,1040.16298686
2018-12-15T01:12:26.688Z,1040.16298686
2018-12-15T01:12:39.034Z,1040.16298686
2018-12-15T01:12:51.411Z,1040.16298686
2018-12-15T01:13:03.757Z,1040.12912298
2018-12-15T01:13:16.159Z,1040.12912298
2018-12-15T01:13:28.493Z,1040.12912298
2018-12-15T01:13:40.840Z,1040.12912298
2018-12-15T01:13:53.186Z,1040.12912298
2018-12-15T01:14:05.538Z,1040.16298686
2018-12-15T01:14:17.931Z,1040.16298686
2018-12-15T01:14:30.278Z,1040.16298686
2018-12-15T01:14:42.613Z,1040.16298686
2018-12-15T01:14:54.956Z,1040.16298686
2018-12-15T01:15:07.309Z,1040.12912298
2018-12-15T01:15:19.637Z,1040.12912298
2018-12-15T01:15:31.971Z,1040.12912298
2018-12-15T01:15:44.403Z,1040.12912298
2018-12-15T01:15:56.745Z,1040.12912298
2018-12-15T01:16:09.119Z,1040.12912298
2018-12-15T01:16:21.478Z,1040.12912298
2018-12-15T01:16:33.841Z,1040.12912298
2018-12-15T01:16:46.332Z,1040.12912298
2018-12-15T01:16:58.684Z,1040.12912298
2018-12-15T01:17:11.105Z,1040.12912298
2018-12-15T01:17:29.544Z,1040.12912298
2018-12-15T01:17:41.891Z,1040.12912298
2018-12-15T01:17:54.222Z,1040.12912298
2018-12-15T01:18:06.588Z,1040.12912298
2018-12-15T01:18:18.931Z,1040.12912298
2018-12-15T01:18:31.285Z,1040.12912298
2018-12-15T01:18:43.839Z,1040.12912298
2018-12-15T01:18:56.242Z,1040.12912298
2018-12-15T01:19:08.625Z,1040.16298686
2018-12-15T01:19:20.952Z,1040.16298686
2018-12-15T01:19:33.303Z,1040.16298686
2018-12-15T01:19:45.635Z,1040.16298686
2018-12-15T01:19:58.003Z,1040.16298686
2018-12-15T01:20:10.417Z,1040.19685074
2018-12-15T01:20:22.756Z,1040.19685074
2018-12-15T01:20:35.115Z,1040.19685074
2018-12-15T01:20:47.481Z,1040.19685074
2018-12-15T01:20:59.820Z,1040.19685074
2018-12-15T01:21:12.175Z,1040.16298686
2018-12-15T01:21:24.527Z,1040.16298686
2018-12-15T01:21:36.855Z,1040.16298686
2018-12-15T01:21:49.216Z,1040.16298686
2018-12-15T01:22:01.555Z,1040.19685074
2018-12-15T01:22:13.943Z,1040.19685074
2018-12-15T01:22:26.289Z,1040.19685074
2018-12-15T01:22:38.646Z,1040.19685074
2018-12-15T01:22:50.991Z,1040.19685074
2018-12-15T01:23:03.394Z,1040.12912298
2018-12-15T01:23:15.735Z,1040.12912298
2018-12-15T01:23:28.106Z,1040.12912298
2018-12-15T01:23:40.461Z,1040.12912298
2018-12-15T01:23:52.808Z,1040.12912298
2018-12-15T01:24:05.157Z,1040.16298686
2018-12-15T01:24:17.718Z,1040.16298686
2018-12-15T01:24:30.140Z,1040.16298686
2018-12-15T01:24:42.574Z,1040.16298686
2018-12-15T01:24:54.930Z,1040.16298686
2018-12-15T01:25:07.547Z,1040.16298686
2018-12-15T01:25:19.893Z,1040.16298686
2018-12-15T01:25:32.381Z,1040.16298686
2018-12-15T01:25:44.717Z,1040.16298686
2018-12-15T01:25:57.076Z,1040.16298686
2018-12-15T01:26:09.409Z,1040.19685074
2018-12-15T01:26:21.768Z,1040.19685074
2018-12-15T01:26:34.240Z,1040.19685074
2018-12-15T01:26:46.584Z,1040.19685074
2018-12-15T01:26:59.003Z,1040.19685074
2018-12-15T01:27:11.349Z,1040.19685074
2018-12-15T01:27:23.695Z,1040.19685074
2018-12-15T01:27:36.028Z,1040.19685074
2018-12-15T01:27:48.380Z,1040.19685074
2018-12-15T01:28:00.744Z,1040.16298686
2018-12-15T01:28:13.096Z,1040.16298686
2018-12-15T01:28:25.426Z,1040.16298686
2018-12-15T01:28:37.760Z,1040.16298686
2018-12-15T01:28:50.265Z,1040.16298686
2018-12-15T01:29:02.598Z,1040.19685074
2018-12-15T01:29:14.937Z,1040.19685074
2018-12-15T01:29:27.296Z,1040.19685074
2018-12-15T01:29:39.707Z,1040.19685074
2018-12-15T01:29:52.054Z,1040.19685074
2018-12-15T01:30:04.381Z,1040.16298686
2018-12-15T01:30:16.740Z,1040.16298686
2018-12-15T01:30:29.101Z,1040.16298686
2018-12-15T01:30:41.456Z,1040.16298686
2018-12-15T01:30:53.797Z,1040.16298686
2018-12-15T01:31:06.150Z,1040.23071463
2018-12-15T01:31:18.494Z,1040.23071463
2018-12-15T01:31:30.912Z,1040.23071463
2018-12-15T01:31:43.260Z,1040.23071463
2018-12-15T01:31:55.795Z,1040.23071463
2018-12-15T01:32:08.297Z,1040.16298686
2018-12-15T01:32:20.802Z,1040.16298686
2018-12-15T01:32:33.277Z,1040.16298686
2018-12-15T01:32:45.632Z,1040.16298686
2018-12-15T01:32:58.001Z,1040.16298686
2018-12-15T01:33:10.351Z,1040.23071463
2018-12-15T01:33:22.708Z,1040.23071463
2018-12-15T01:33:35.263Z,1040.23071463
2018-12-15T01:33:47.608Z,1040.23071463
2018-12-15T01:33:59.974Z,1040.23071463
2018-12-15T01:34:12.954Z,1040.19685074
2018-12-15T01:34:25.316Z,1040.19685074
2018-12-15T01:34:37.707Z,1040.19685074
2018-12-15T01:34:50.232Z,1040.19685074
2018-12-15T01:35:02.591Z,1040.16298686
2018-12-15T01:35:14.937Z,1040.16298686
2018-12-15T01:35:27.266Z,1040.16298686
2018-12-15T01:35:39.641Z,1040.16298686
2018-12-15T01:35:52.018Z,1040.16298686
2018-12-15T01:36:04.420Z,1040.19685074
2018-12-15T01:36:16.773Z,1040.19685074
2018-12-15T01:36:29.160Z,1040.19685074
2018-12-15T01:36:41.514Z,1040.19685074
2018-12-15T01:36:53.857Z,1040.19685074
2018-12-15T01:37:06.202Z,1040.19685074
2018-12-15T01:37:18.587Z,1040.19685074
2018-12-15T01:37:30.918Z,1040.19685074
2018-12-15T01:37:43.516Z,1040.19685074
2018-12-15T01:37:55.919Z,1040.19685074
2018-12-15T01:38:08.392Z,1040.19685074
2018-12-15T01:38:20.862Z,1040.19685074
2018-12-15T01:38:33.222Z,1040.19685074
2018-12-15T01:38:45.556Z,1040.19685074
2018-12-15T01:38:57.899Z,1040.19685074
2018-12-15T01:39:10.318Z,1040.19685074
2018-12-15T01:39:24.389Z,1040.19685074
2018-12-15T01:39:36.734Z,1040.19685074
2018-12-15T01:39:49.156Z,1040.19685074
2018-12-15T01:40:01.632Z,1040.19685074
2018-12-15T01:40:14.127Z,1040.19685074
2018-12-15T01:40:26.488Z,1040.19685074
2018-12-15T01:40:38.833Z,1040.19685074
2018-12-15T01:40:51.184Z,1040.19685074
2018-12-15T01:41:03.648Z,1040.29844239
2018-12-15T01:41:16.107Z,1040.29844239
2018-12-15T01:41:28.450Z,1040.29844239
2018-12-15T01:41:40.774Z,1040.29844239
2018-12-15T01:41:53.115Z,1040.29844239
2018-12-15T01:42:05.477Z,1040.26457851
2018-12-15T01:42:17.828Z,1040.26457851
2018-12-15T01:42:30.168Z,1040.26457851
2018-12-15T01:42:42.512Z,1040.26457851
2018-12-15T01:42:54.857Z,1040.26457851
2018-12-15T01:43:07.199Z,1040.29844239
2018-12-15T01:43:19.549Z,1040.29844239
2018-12-15T01:43:31.896Z,1040.29844239
2018-12-15T01:43:44.247Z,1040.29844239
2018-12-15T01:43:56.598Z,1040.29844239
2018-12-15T01:44:09.029Z,1040.33230627
2018-12-15T01:44:21.373Z,1040.33230627
2018-12-15T01:44:33.749Z,1040.33230627
2018-12-15T01:44:46.095Z,1040.33230627
2018-12-15T01:44:58.462Z,1040.33230627
2018-12-15T01:45:10.819Z,1040.19685074
2018-12-15T01:45:23.165Z,1040.19685074
2018-12-15T01:45:35.520Z,1040.19685074
2018-12-15T01:45:47.956Z,1040.19685074
2018-12-15T01:46:00.306Z,1040.19685074
2018-12-15T01:46:14.224Z,1040.23071463
2018-12-15T01:46:26.589Z,1040.23071463
2018-12-15T01:46:38.943Z,1040.23071463
2018-12-15T01:46:51.387Z,1040.23071463
2018-12-15T01:47:03.761Z,1040.26457851
2018-12-15T01:47:16.141Z,1040.26457851
2018-12-15T01:47:34.945Z,1040.26457851
2018-12-15T01:47:47.284Z,1040.26457851
2018-12-15T01:47:59.630Z,1040.26457851
2018-12-15T01:48:11.975Z,1040.26457851
2018-12-15T01:48:24.310Z,1040.26457851
2018-12-15T01:48:36.641Z,1040.26457851
2018-12-15T01:48:48.996Z,1040.26457851
2018-12-15T01:49:01.383Z,1040.26457851
2018-12-15T01:49:13.715Z,1040.26457851
2018-12-15T01:49:26.174Z,1040.26457851
2018-12-15T01:49:38.510Z,1040.26457851
2018-12-15T01:49:50.909Z,1040.26457851
2018-12-15T01:50:03.374Z,1040.26457851
2018-12-15T01:50:15.706Z,1040.26457851
2018-12-15T01:50:28.063Z,1040.26457851
2018-12-15T01:50:40.394Z,1040.26457851
2018-12-15T01:50:52.734Z,1040.26457851
2018-12-15T01:51:05.147Z,1040.23071463
2018-12-15T01:51:17.521Z,1040.23071463
2018-12-15T01:51:29.870Z,1040.23071463
2018-12-15T01:51:42.244Z,1040.23071463
2018-12-15T01:51:54.622Z,1040.23071463
2018-12-15T01:52:07.233Z,1040.12912298
2018-12-15T01:52:19.568Z,1040.12912298
2018-12-15T01:52:31.914Z,1040.12912298
2018-12-15T01:52:44.265Z,1040.12912298
2018-12-15T01:52:56.618Z,1040.12912298
2018-12-15T01:53:08.970Z,1040.23071463
2018-12-15T01:53:21.310Z,1040.23071463
2018-12-15T01:53:33.653Z,1040.23071463
2018-12-15T01:53:45.988Z,1040.23071463
2018-12-15T01:53:58.339Z,1040.23071463
2018-12-15T01:54:10.681Z,1040.29844239
2018-12-15T01:54:23.019Z,1040.29844239
2018-12-15T01:54:35.398Z,1040.29844239
2018-12-15T01:54:47.739Z,1040.29844239
2018-12-15T01:55:00.298Z,1040.29844239
2018-12-15T01:55:12.639Z,1040.12912298
2018-12-15T01:55:25.010Z,1040.12912298
2018-12-15T01:55:37.366Z,1040.12912298
2018-12-15T01:55:49.709Z,1040.12912298
2018-12-15T01:56:02.136Z,1040.16298686
2018-12-15T01:56:14.481Z,1040.16298686
2018-12-15T01:56:26.832Z,1040.16298686
2018-12-15T01:56:39.182Z,1040.16298686
2018-12-15T01:56:51.689Z,1040.16298686
2018-12-15T01:57:04.023Z,1040.19685074
2018-12-15T01:57:16.443Z,1040.19685074
2018-12-15T01:57:28.825Z,1040.19685074
2018-12-15T01:57:41.172Z,1040.19685074
2018-12-15T01:57:53.524Z,1040.19685074
2018-12-15T01:58:05.920Z,1040.16298686
2018-12-15T01:58:19.037Z,1040.16298686
2018-12-15T01:58:31.359Z,1040.16298686
2018-12-15T01:58:43.771Z,1040.16298686
2018-12-15T01:58:56.560Z,1040.16298686
2018-12-15T01:59:08.913Z,1040.0952591
2018-12-15T01:59:21.287Z,1040.0952591
2018-12-15T01:59:33.630Z,1040.0952591
2018-12-15T01:59:45.970Z,1040.0952591
2018-12-15T01:59:58.385Z,1040.0952591
2018-12-15T02:00:10.802Z,1040.16298686
2018-12-15T02:00:23.176Z,1040.16298686
2018-12-15T02:00:35.540Z,1040.16298686
2018-12-15T02:00:47.895Z,1040.16298686
2018-12-15T02:01:00.255Z,1040.16298686
2018-12-15T02:01:12.599Z,1040.12912298
2018-12-15T02:01:24.934Z,1040.12912298
2018-12-15T02:01:37.295Z,1040.12912298
2018-12-15T02:01:49.652Z,1040.12912298
2018-12-15T02:02:02.008Z,1040.16298686
2018-12-15T02:02:14.348Z,1040.16298686
2018-12-15T02:02:26.893Z,1040.16298686
2018-12-15T02:02:39.381Z,1040.16298686
2018-12-15T02:02:51.721Z,1040.16298686
2018-12-15T02:03:04.070Z,1040.0952591
2018-12-15T02:03:16.434Z,1040.0952591
2018-12-15T02:03:28.790Z,1040.0952591
2018-12-15T02:03:41.148Z,1040.0952591
2018-12-15T02:03:53.495Z,1040.0952591
2018-12-15T02:04:05.895Z,1040.06139522
2018-12-15T02:04:18.252Z,1040.06139522
2018-12-15T02:04:30.599Z,1040.06139522
2018-12-15T02:04:42.984Z,1040.06139522
2018-12-15T02:04:55.345Z,1040.06139522
2018-12-15T02:05:07.754Z,1040.16298686
2018-12-15T02:05:20.107Z,1040.16298686
2018-12-15T02:05:32.629Z,1040.16298686
2018-12-15T02:05:44.965Z,1040.16298686
2018-12-15T02:05:57.362Z,1040.16298686
2018-12-15T02:06:09.858Z,1040.16298686
2018-12-15T02:06:22.229Z,1040.16298686
2018-12-15T02:06:34.572Z,1040.16298686
2018-12-15T02:06:46.955Z,1040.16298686
2018-12-15T02:06:59.287Z,1040.16298686
2018-12-15T02:07:11.628Z,1040.12912298
2018-12-15T02:07:23.996Z,1040.12912298
2018-12-15T02:07:36.410Z,1040.12912298